createdAt,value
2022-10-05T00:00:02.824Z,45.60
2022-10-05T00:05:20.563Z,45.80
2022-10-05T00:10:24.804Z,46.20
2022-10-05T00:15:30.306Z,45.80
2022-10-05T00:20:33.702Z,45.90
2022-10-05T00:25:37.164Z,46.00
2022-10-05T00:30:42.120Z,45.90
2022-10-05T00:35:45.450Z,46.10
2022-10-05T00:41:02.654Z,46.00
2022-10-05T00:46:11.797Z,46.50
2022-10-05T00:51:24.871Z,46.80
2022-10-05T00:56:44.640Z,46.40
2022-10-05T01:01:58.841Z,46.70
2022-10-05T01:07:12.309Z,46.60
2022-10-05T01:12:24.578Z,46.60
2022-10-05T01:17:37.372Z,46.50
2022-10-05T01:23:00.557Z,46.70
2022-10-05T01:28:09.912Z,46.70
2022-10-05T01:33:22.922Z,46.70
2022-10-05T01:38:39.818Z,46.60
2022-10-05T01:43:49.422Z,46.90
2022-10-05T01:49:13.647Z,46.80
2022-10-05T01:54:29.298Z,46.90
2022-10-05T01:59:45.971Z,46.90
2022-10-05T02:05:02.125Z,47.00
2022-10-05T02:10:15.039Z,46.90
2022-10-05T02:15:26.893Z,46.90
2022-10-05T02:20:33.949Z,47.10
2022-10-05T02:25:42.118Z,46.90
2022-10-05T02:30:52.867Z,46.90
2022-10-05T02:36:01.381Z,47.10
2022-10-05T02:41:13.832Z,46.90
2022-10-05T02:46:31.512Z,47.20
2022-10-05T02:51:38.945Z,47.30
2022-10-05T02:56:49.686Z,47.00
2022-10-05T03:02:01.368Z,47.00
2022-10-05T03:07:12.332Z,47.20
2022-10-05T03:12:30.158Z,47.00
2022-10-05T03:17:41.018Z,47.20
2022-10-05T03:22:50.946Z,47.10
2022-10-05T03:28:02.337Z,47.20
2022-10-05T03:33:15.345Z,47.10
2022-10-05T03:38:25.448Z,47.30
2022-10-05T03:44:00.988Z,47.10
2022-10-05T03:49:15.136Z,47.50
2022-10-05T03:54:25.779Z,47.50
2022-10-05T03:59:34.970Z,47.40
2022-10-05T04:04:46.310Z,47.20
2022-10-05T04:09:54.220Z,47.30
2022-10-05T04:15:03.774Z,47.30
2022-10-05T04:20:18.770Z,47.40
2022-10-05T04:25:26.268Z,47.50
2022-10-05T04:30:31.841Z,47.30
2022-10-05T04:35:56.585Z,47.40
2022-10-05T04:41:14.734Z,47.70
2022-10-05T04:46:33.725Z,47.60
2022-10-05T04:51:50.902Z,47.70
2022-10-05T04:57:01.771Z,47.60
2022-10-05T05:02:16.924Z,47.60
2022-10-05T05:07:37.175Z,47.70
2022-10-05T05:12:52.011Z,47.80
2022-10-05T05:18:24.743Z,48.50
2022-10-05T05:23:38.786Z,48.00
2022-10-05T05:28:50.863Z,47.90
2022-10-05T05:34:04.191Z,47.90
2022-10-05T05:39:25.295Z,52.90
2022-10-05T05:44:38.718Z,51.80
2022-10-05T05:50:06.562Z,50.30
2022-10-05T05:55:21.396Z,49.20
2022-10-05T06:00:28.852Z,48.40
2022-10-05T06:05:41.705Z,47.80
2022-10-05T06:10:54.021Z,47.60
2022-10-05T06:16:05.325Z,47.50
2022-10-05T06:21:17.103Z,47.50
2022-10-05T06:26:43.671Z,47.60
2022-10-05T06:32:01.238Z,47.80
2022-10-05T06:37:12.087Z,47.80
2022-10-05T06:42:31.623Z,47.80
2022-10-05T06:48:21.668Z,48.10
2022-10-05T06:54:04.213Z,47.90
2022-10-05T06:59:15.774Z,47.80
2022-10-05T07:04:44.326Z,47.70
2022-10-05T07:10:01.749Z,47.80
2022-10-05T07:15:34.954Z,47.80
2022-10-05T07:20:49.184Z,47.90
2022-10-05T07:26:04.643Z,47.90
2022-10-05T07:31:14.943Z,47.90
2022-10-05T07:36:43.132Z,47.90
2022-10-05T07:41:51.488Z,48.10
2022-10-05T07:47:05.440Z,48.10
2022-10-05T07:52:14.324Z,48.30
2022-10-05T07:57:25.973Z,48.30
2022-10-05T08:02:36.137Z,48.40
2022-10-05T08:07:40.631Z,48.30
2022-10-05T08:12:55.846Z,48.30
2022-10-05T08:18:03.212Z,48.30
2022-10-05T08:23:15.887Z,48.30
2022-10-05T08:28:24.792Z,48.30
2022-10-05T08:33:36.268Z,48.20
2022-10-05T08:38:41.160Z,48.20
2022-10-05T08:44:15.076Z,48.10
2022-10-05T08:49:47.245Z,47.90
2022-10-05T08:55:27.706Z,47.80
2022-10-05T09:00:41.005Z,47.70
2022-10-05T09:06:09.102Z,47.90
2022-10-05T09:11:19.175Z,47.70
2022-10-05T09:16:49.177Z,47.80
2022-10-05T09:21:59.350Z,47.40
2022-10-05T09:27:10.116Z,47.40
2022-10-05T09:32:45.655Z,47.40
2022-10-05T09:38:16.498Z,46.90
2022-10-05T09:43:55.617Z,46.90
2022-10-05T09:49:21.497Z,46.50
2022-10-05T09:55:06.840Z,46.20
2022-10-05T10:00:21.850Z,46.20
2022-10-05T10:05:39.092Z,46.20
2022-10-05T10:10:58.123Z,46.30
2022-10-05T10:16:23.714Z,45.80
2022-10-05T10:21:53.853Z,45.40
2022-10-05T10:27:12.316Z,44.90
2022-10-05T10:32:46.137Z,44.60
2022-10-05T10:38:31.322Z,44.00
2022-10-05T10:44:16.413Z,43.80
2022-10-05T10:49:39.471Z,43.80
2022-10-05T10:55:08.239Z,44.10
2022-10-05T11:00:33.624Z,44.00
2022-10-05T11:06:05.293Z,43.90
2022-10-05T11:11:38.271Z,43.80
2022-10-05T11:17:10.873Z,43.20
2022-10-05T11:22:43.879Z,43.20
2022-10-05T11:28:01.997Z,43.20
2022-10-05T11:33:43.856Z,43.20
2022-10-05T11:39:30.381Z,42.50
2022-10-05T11:45:06.317Z,42.50
2022-10-05T11:50:22.035Z,42.20
2022-10-05T11:55:28.933Z,42.10
2022-10-05T12:00:41.503Z,42.40
2022-10-05T12:06:05.347Z,42.20
2022-10-05T12:11:16.319Z,42.10
2022-10-05T12:16:27.721Z,42.00
2022-10-05T12:21:41.158Z,41.60
2022-10-05T12:26:49.100Z,41.50
2022-10-05T12:32:00.569Z,41.50
2022-10-05T12:37:10.909Z,41.00
2022-10-05T12:42:26.062Z,40.90
2022-10-05T12:47:41.036Z,40.50
2022-10-05T12:53:01.603Z,40.50
2022-10-05T12:58:19.790Z,40.30
2022-10-05T13:03:27.670Z,40.20
2022-10-05T13:08:35.309Z,40.50
2022-10-05T13:13:50.568Z,40.60
2022-10-05T13:19:19.574Z,40.30
2022-10-05T13:24:27.147Z,40.10
2022-10-05T13:29:36.306Z,40.60
2022-10-05T13:34:48.613Z,40.50
2022-10-05T13:40:02.097Z,40.20
2022-10-05T13:45:15.081Z,40.30
2022-10-05T13:50:28.424Z,40.30
2022-10-05T13:55:42.209Z,40.50
2022-10-05T14:00:51.045Z,40.40
2022-10-05T14:05:57.865Z,40.50
2022-10-05T14:11:03.071Z,40.60
2022-10-05T14:16:21.592Z,41.30
2022-10-05T14:21:27.609Z,40.30
2022-10-05T14:26:36.405Z,41.20
2022-10-05T14:31:50.831Z,40.50
2022-10-05T14:37:01.504Z,40.50
2022-10-05T14:42:15.845Z,40.50
2022-10-05T14:47:23.771Z,40.60
2022-10-05T14:52:34.768Z,40.80
2022-10-05T14:57:42.995Z,41.40
2022-10-05T15:03:21.709Z,40.80
2022-10-05T15:08:46.330Z,40.70
2022-10-05T15:13:49.993Z,40.80
2022-10-05T15:19:01.062Z,41.00
2022-10-05T15:24:10.517Z,41.00
2022-10-05T15:29:27.761Z,41.10
2022-10-05T15:34:37.605Z,41.10
2022-10-05T15:39:50.254Z,41.20
2022-10-05T15:45:06.270Z,41.10
2022-10-05T15:50:21.781Z,41.30
2022-10-05T15:55:48.755Z,42.90
2022-10-05T16:00:58.874Z,43.30
2022-10-05T16:06:26.139Z,43.20
2022-10-05T16:11:51.811Z,43.50
2022-10-05T16:17:08.210Z,43.70
2022-10-05T16:22:22.463Z,44.70
2022-10-05T16:27:38.962Z,43.90
2022-10-05T16:32:51.076Z,42.50
2022-10-05T16:38:05.847Z,42.60
2022-10-05T16:43:23.083Z,41.40
2022-10-05T16:48:29.553Z,41.00
2022-10-05T16:53:38.444Z,40.90
2022-10-05T16:58:57.136Z,40.70
2022-10-05T17:04:15.054Z,40.70
2022-10-05T17:09:43.274Z,40.60
2022-10-05T17:15:03.454Z,40.80
2022-10-05T17:20:31.237Z,40.90
2022-10-05T17:25:44.601Z,41.00
2022-10-05T17:31:06.576Z,41.30
2022-10-05T17:36:20.039Z,43.50
2022-10-05T17:41:25.513Z,44.30
2022-10-05T17:46:42.475Z,43.90
2022-10-05T17:52:18.367Z,43.30
2022-10-05T17:57:25.221Z,42.50
2022-10-05T18:02:44.255Z,42.10
2022-10-05T18:07:50.165Z,41.60
2022-10-05T18:13:19.810Z,41.50
2022-10-05T18:18:58.816Z,41.40
2022-10-05T18:24:17.783Z,41.40
2022-10-05T18:29:48.414Z,41.30
2022-10-05T18:35:02.125Z,41.40
2022-10-05T18:40:26.078Z,42.20
2022-10-05T18:45:36.810Z,41.70
2022-10-05T18:50:46.811Z,41.80
2022-10-05T18:55:57.769Z,42.00
2022-10-05T19:01:30.511Z,42.20
2022-10-05T19:06:39.984Z,42.50
2022-10-05T19:11:53.748Z,42.60
2022-10-05T19:17:12.364Z,42.70
2022-10-05T19:22:25.224Z,42.90
2022-10-05T19:27:40.672Z,42.90
2022-10-05T19:33:21.122Z,43.10
2022-10-05T19:38:33.844Z,43.30
2022-10-05T19:44:09.178Z,43.30
2022-10-05T19:49:12.894Z,43.50
2022-10-05T19:54:25.970Z,43.40
2022-10-05T19:59:32.067Z,43.60
2022-10-05T20:04:40.886Z,43.70
2022-10-05T20:09:56.934Z,43.90
2022-10-05T20:15:26.868Z,44.00
2022-10-05T20:20:38.389Z,44.10
2022-10-05T20:25:41.644Z,44.30
2022-10-05T20:30:46.603Z,44.10
2022-10-05T20:35:49.881Z,44.20
2022-10-05T20:40:53.127Z,44.20
2022-10-05T20:45:57.851Z,44.30
2022-10-05T20:51:02.276Z,44.50
2022-10-05T20:56:06.132Z,44.50
2022-10-05T21:01:19.088Z,44.70
2022-10-05T21:06:22.973Z,44.70
2022-10-05T21:11:26.838Z,44.60
2022-10-05T21:16:31.675Z,44.70
2022-10-05T21:21:35.240Z,44.80
2022-10-05T21:26:38.811Z,44.80
2022-10-05T21:31:43.876Z,45.00
2022-10-05T21:36:48.519Z,45.10
2022-10-05T21:41:52.329Z,45.10
2022-10-05T21:46:57.596Z,45.20
2022-10-05T21:52:02.178Z,45.30
2022-10-05T21:57:05.655Z,45.30
2022-10-05T22:02:10.264Z,45.30
2022-10-05T22:07:19.193Z,45.40
2022-10-05T22:12:24.452Z,45.70
2022-10-05T22:17:31.834Z,45.50
2022-10-05T22:22:35.097Z,45.70
2022-10-05T22:27:38.408Z,45.60
2022-10-05T22:32:43.268Z,45.70
2022-10-05T22:37:47.062Z,45.80
2022-10-05T22:42:50.405Z,45.80
2022-10-05T22:47:55.076Z,45.80
2022-10-05T22:52:58.719Z,46.00
2022-10-05T22:58:02.817Z,45.90
2022-10-05T23:03:07.577Z,46.00
2022-10-05T23:08:10.814Z,46.20
2022-10-05T23:13:14.005Z,46.20
2022-10-05T23:18:18.600Z,46.20
2022-10-05T23:23:22.165Z,46.40
2022-10-05T23:28:26.343Z,46.30
2022-10-05T23:33:31.946Z,46.40
2022-10-05T23:38:36.750Z,46.60
2022-10-05T23:43:40.666Z,46.60
2022-10-05T23:48:45.613Z,46.60
2022-10-05T23:53:49.006Z,46.80
2022-10-05T23:58:52.221Z,46.80
